sensor_id;sensor_type;location;lat;lon;timestamp;pressure;altitude;pressure_sealevel;temperature;humidity
79331;BME280;68797;49.782;19.054;2023-04-25T00:02:11;96123.16;;;10.03;86.31
79331;BME280;68797;49.782;19.054;2023-04-25T00:04:38;96132.59;;;10.09;85.33
79331;BME280;68797;49.782;19.054;2023-04-25T00:07:08;96127.34;;;10.07;85.19
79331;BME280;68797;49.782;19.054;2023-04-25T00:09:36;96139.31;;;10.16;84.75
79331;BME280;68797;49.782;19.054;2023-04-25T00:12:03;96132.38;;;10.13;84.06
79331;BME280;68797;49.782;19.054;2023-04-25T00:14:30;96135.66;;;10.18;83.70
79331;BME280;68797;49.782;19.054;2023-04-25T00:16:58;96134.94;;;10.15;82.90
79331;BME280;68797;49.782;19.054;2023-04-25T00:19:25;96137.44;;;10.18;83.46
79331;BME280;68797;49.782;19.054;2023-04-25T00:21:57;96133.31;;;10.12;82.19
79331;BME280;68797;49.782;19.054;2023-04-25T00:24:24;96130.50;;;10.15;82.08
79331;BME280;68797;49.782;19.054;2023-04-25T00:26:51;96139.38;;;10.14;82.23
79331;BME280;68797;49.782;19.054;2023-04-25T00:29:18;96137.59;;;10.15;81.68
79331;BME280;68797;49.782;19.054;2023-04-25T00:31:47;96130.59;;;10.14;82.04
79331;BME280;68797;49.782;19.054;2023-04-25T00:34:14;96135.97;;;10.12;82.12
79331;BME280;68797;49.782;19.054;2023-04-25T00:36:42;96129.16;;;10.07;82.44
79331;BME280;68797;49.782;19.054;2023-04-25T00:39:11;96139.91;;;10.04;81.80
79331;BME280;68797;49.782;19.054;2023-04-25T00:41:39;96134.59;;;10.04;82.18
79331;BME280;68797;49.782;19.054;2023-04-25T00:44:09;96137.09;;;10.07;81.98
79331;BME280;68797;49.782;19.054;2023-04-25T00:46:43;96139.13;;;10.02;82.16
79331;BME280;68797;49.782;19.054;2023-04-25T00:49:11;96149.66;;;10.03;80.81
79331;BME280;68797;49.782;19.054;2023-04-25T00:51:43;96146.03;;;9.87;80.64
79331;BME280;68797;49.782;19.054;2023-04-25T00:54:12;96150.66;;;9.82;81.79
79331;BME280;68797;49.782;19.054;2023-04-25T00:56:39;96151.66;;;9.79;81.69
79331;BME280;68797;49.782;19.054;2023-04-25T00:59:05;96147.31;;;9.78;81.80
79331;BME280;68797;49.782;19.054;2023-04-25T01:01:34;96146.56;;;9.75;81.28
79331;BME280;68797;49.782;19.054;2023-04-25T01:04:02;96150.44;;;9.68;81.88
79331;BME280;68797;49.782;19.054;2023-04-25T01:06:30;96156.00;;;9.61;82.71
79331;BME280;68797;49.782;19.054;2023-04-25T01:08:59;96152.88;;;9.53;82.90
79331;BME280;68797;49.782;19.054;2023-04-25T01:11:27;96151.00;;;9.55;83.75
79331;BME280;68797;49.782;19.054;2023-04-25T01:13:53;96157.25;;;9.54;84.42
79331;BME280;68797;49.782;19.054;2023-04-25T01:16:22;96156.78;;;9.45;84.23
79331;BME280;68797;49.782;19.054;2023-04-25T01:18:51;96153.28;;;9.44;84.97
79331;BME280;68797;49.782;19.054;2023-04-25T01:21:17;96165.84;;;9.39;84.57
79331;BME280;68797;49.782;19.054;2023-04-25T01:23:45;96164.44;;;9.32;85.28
79331;BME280;68797;49.782;19.054;2023-04-25T01:26:14;96161.09;;;9.27;84.78
79331;BME280;68797;49.782;19.054;2023-04-25T01:28:42;96165.75;;;9.22;85.88
79331;BME280;68797;49.782;19.054;2023-04-25T01:31:11;96161.31;;;9.22;84.97
79331;BME280;68797;49.782;19.054;2023-04-25T01:33:37;96162.13;;;9.24;85.77
79331;BME280;68797;49.782;19.054;2023-04-25T01:36:04;96158.47;;;9.27;85.54
79331;BME280;68797;49.782;19.054;2023-04-25T01:38:34;96158.13;;;9.35;85.09
79331;BME280;68797;49.782;19.054;2023-04-25T01:41:02;96157.06;;;9.39;85.01
79331;BME280;68797;49.782;19.054;2023-04-25T01:43:28;96162.19;;;9.42;84.98
79331;BME280;68797;49.782;19.054;2023-04-25T01:45:57;96157.34;;;9.32;85.64
79331;BME280;68797;49.782;19.054;2023-04-25T01:48:26;96156.41;;;9.34;85.50
79331;BME280;68797;49.782;19.054;2023-04-25T01:50:53;96170.44;;;9.15;86.37
79331;BME280;68797;49.782;19.054;2023-04-25T01:53:20;96167.16;;;9.10;86.12
79331;BME280;68797;49.782;19.054;2023-04-25T01:55:48;96170.53;;;9.14;85.38
79331;BME280;68797;49.782;19.054;2023-04-25T01:58:18;96163.75;;;9.07;84.69
79331;BME280;68797;49.782;19.054;2023-04-25T02:01:12;96172.69;;;9.04;84.48
79331;BME280;68797;49.782;19.054;2023-04-25T02:03:47;96180.25;;;8.93;84.39
79331;BME280;68797;49.782;19.054;2023-04-25T02:06:39;96174.31;;;8.88;84.71
79331;BME280;68797;49.782;19.054;2023-04-25T02:09:07;96186.06;;;8.81;84.91
79331;BME280;68797;49.782;19.054;2023-04-25T02:11:33;96175.16;;;8.88;85.48
79331;BME280;68797;49.782;19.054;2023-04-25T02:14:18;96188.09;;;8.94;84.50
79331;BME280;68797;49.782;19.054;2023-04-25T02:16:54;96187.31;;;8.92;85.21
79331;BME280;68797;49.782;19.054;2023-04-25T02:19:24;96191.28;;;8.82;85.30
79331;BME280;68797;49.782;19.054;2023-04-25T02:21:52;96186.06;;;8.81;85.60
79331;BME280;68797;49.782;19.054;2023-04-25T02:24:19;96195.81;;;8.58;85.96
79331;BME280;68797;49.782;19.054;2023-04-25T02:26:45;96196.47;;;8.63;85.82
79331;BME280;68797;49.782;19.054;2023-04-25T02:29:13;96193.94;;;8.60;85.95
79331;BME280;68797;49.782;19.054;2023-04-25T02:31:47;96194.88;;;8.59;86.25
79331;BME280;68797;49.782;19.054;2023-04-25T02:34:13;96200.31;;;8.56;86.44
79331;BME280;68797;49.782;19.054;2023-04-25T02:36:39;96205.38;;;8.61;86.22
79331;BME280;68797;49.782;19.054;2023-04-25T02:39:08;96203.13;;;8.52;86.12
79331;BME280;68797;49.782;19.054;2023-04-25T02:41:35;96209.47;;;8.48;85.97
79331;BME280;68797;49.782;19.054;2023-04-25T02:44:02;96204.72;;;8.56;85.95
79331;BME280;68797;49.782;19.054;2023-04-25T02:46:30;96211.47;;;8.63;85.47
79331;BME280;68797;49.782;19.054;2023-04-25T02:48:59;96209.50;;;8.68;85.18
79331;BME280;68797;49.782;19.054;2023-04-25T02:51:28;96206.31;;;8.60;84.22
79331;BME280;68797;49.782;19.054;2023-04-25T02:53:56;96213.47;;;8.58;84.62
79331;BME280;68797;49.782;19.054;2023-04-25T02:56:23;96211.31;;;8.46;84.54
79331;BME280;68797;49.782;19.054;2023-04-25T02:58:54;96212.34;;;8.41;84.92
79331;BME280;68797;49.782;19.054;2023-04-25T03:01:21;96218.94;;;8.30;85.40
79331;BME280;68797;49.782;19.054;2023-04-25T03:03:48;96216.03;;;8.37;85.04
79331;BME280;68797;49.782;19.054;2023-04-25T03:06:15;96214.13;;;8.41;84.91
79331;BME280;68797;49.782;19.054;2023-04-25T03:08:42;96215.56;;;8.26;83.44
79331;BME280;68797;49.782;19.054;2023-04-25T03:11:12;96216.38;;;8.28;83.94
79331;BME280;68797;49.782;19.054;2023-04-25T03:13:38;96215.63;;;8.25;83.00
79331;BME280;68797;49.782;19.054;2023-04-25T03:16:06;96218.22;;;8.26;83.79
79331;BME280;68797;49.782;19.054;2023-04-25T03:18:32;96213.72;;;8.28;84.14
79331;BME280;68797;49.782;19.054;2023-04-25T03:20:58;96215.94;;;8.17;84.70
79331;BME280;68797;49.782;19.054;2023-04-25T03:23:25;96218.19;;;8.04;85.19
79331;BME280;68797;49.782;19.054;2023-04-25T03:25:53;96209.97;;;8.12;84.72
79331;BME280;68797;49.782;19.054;2023-04-25T03:28:20;96212.34;;;8.18;84.54
79331;BME280;68797;49.782;19.054;2023-04-25T03:30:50;96218.88;;;8.09;84.12
79331;BME280;68797;49.782;19.054;2023-04-25T03:33:17;96219.03;;;8.05;84.35
79331;BME280;68797;49.782;19.054;2023-04-25T03:35:44;96217.25;;;8.05;84.29
79331;BME280;68797;49.782;19.054;2023-04-25T03:38:14;96221.34;;;8.14;83.99
79331;BME280;68797;49.782;19.054;2023-04-25T03:40:42;96214.69;;;8.04;84.22
79331;BME280;68797;49.782;19.054;2023-04-25T03:43:24;96219.84;;;8.07;83.91
79331;BME280;68797;49.782;19.054;2023-04-25T03:45:57;96217.91;;;8.12;84.36
79331;BME280;68797;49.782;19.054;2023-04-25T03:48:25;96216.00;;;8.15;84.87
79331;BME280;68797;49.782;19.054;2023-04-25T03:50:54;96210.06;;;8.09;84.47
79331;BME280;68797;49.782;19.054;2023-04-25T03:53:20;96221.47;;;8.11;84.59
79331;BME280;68797;49.782;19.054;2023-04-25T03:56:25;96224.66;;;8.19;84.64
79331;BME280;68797;49.782;19.054;2023-04-25T03:58:59;96228.34;;;8.15;85.09
79331;BME280;68797;49.782;19.054;2023-04-25T04:01:28;96230.78;;;8.20;85.25
79331;BME280;68797;49.782;19.054;2023-04-25T04:03:54;96234.94;;;8.27;84.73
79331;BME280;68797;49.782;19.054;2023-04-25T04:06:22;96236.03;;;8.21;84.59
79331;BME280;68797;49.782;19.054;2023-04-25T04:08:55;96240.56;;;8.18;84.47
79331;BME280;68797;49.782;19.054;2023-04-25T04:11:22;96241.34;;;8.20;85.15
79331;BME280;68797;49.782;19.054;2023-04-25T04:13:50;96239.34;;;8.26;84.70
79331;BME280;68797;49.782;19.054;2023-04-25T04:16:21;96237.66;;;8.02;84.01
79331;BME280;68797;49.782;19.054;2023-04-25T04:18:49;96232.31;;;8.03;84.61
79331;BME280;68797;49.782;19.054;2023-04-25T04:21:17;96246.16;;;8.10;83.96
79331;BME280;68797;49.782;19.054;2023-04-25T04:23:45;96245.41;;;8.06;84.04
79331;BME280;68797;49.782;19.054;2023-04-25T04:26:17;96241.69;;;8.12;84.35
79331;BME280;68797;49.782;19.054;2023-04-25T04:29:17;96242.13;;;8.23;83.84
79331;BME280;68797;49.782;19.054;2023-04-25T04:31:58;96247.22;;;8.28;83.05
79331;BME280;68797;49.782;19.054;2023-04-25T04:34:25;96241.78;;;8.32;82.92
79331;BME280;68797;49.782;19.054;2023-04-25T04:36:58;96242.53;;;8.36;82.61
79331;BME280;68797;49.782;19.054;2023-04-25T04:39:26;96241.19;;;8.48;82.00
79331;BME280;68797;49.782;19.054;2023-04-25T04:42:05;96246.22;;;8.30;82.58
79331;BME280;68797;49.782;19.054;2023-04-25T04:44:41;96243.72;;;8.27;81.33
79331;BME280;68797;49.782;19.054;2023-04-25T04:47:23;96248.00;;;8.30;82.23
79331;BME280;68797;49.782;19.054;2023-04-25T04:50:26;96247.09;;;8.31;82.35
79331;BME280;68797;49.782;19.054;2023-04-25T04:53:11;96254.16;;;8.30;81.34
79331;BME280;68797;49.782;19.054;2023-04-25T04:55:40;96246.09;;;8.35;81.96
79331;BME280;68797;49.782;19.054;2023-04-25T04:58:23;96245.91;;;8.39;81.66
79331;BME280;68797;49.782;19.054;2023-04-25T05:01:09;96249.84;;;8.51;81.32
79331;BME280;68797;49.782;19.054;2023-04-25T05:04:13;96250.75;;;8.50;81.21
79331;BME280;68797;49.782;19.054;2023-04-25T05:07:02;96242.91;;;8.49;80.61
79331;BME280;68797;49.782;19.054;2023-04-25T05:10:09;96236.56;;;8.53;81.18
79331;BME280;68797;49.782;19.054;2023-04-25T05:13:06;96249.97;;;8.48;81.21
79331;BME280;68797;49.782;19.054;2023-04-25T05:15:36;96238.25;;;8.55;81.76
79331;BME280;68797;49.782;19.054;2023-04-25T05:18:19;96244.63;;;8.50;80.10
79331;BME280;68797;49.782;19.054;2023-04-25T05:20:53;96240.88;;;8.55;80.23
79331;BME280;68797;49.782;19.054;2023-04-25T05:23:46;96243.47;;;8.57;81.45
79331;BME280;68797;49.782;19.054;2023-04-25T05:26:43;96239.59;;;8.65;80.66
79331;BME280;68797;49.782;19.054;2023-04-25T05:29:30;96245.41;;;8.73;80.00
79331;BME280;68797;49.782;19.054;2023-04-25T05:32:28;96246.66;;;8.87;80.79
79331;BME280;68797;49.782;19.054;2023-04-25T05:34:55;96237.66;;;8.91;80.29
79331;BME280;68797;49.782;19.054;2023-04-25T05:37:51;96246.25;;;8.96;80.20
79331;BME280;68797;49.782;19.054;2023-04-25T05:40:25;96242.41;;;9.03;79.89
79331;BME280;68797;49.782;19.054;2023-04-25T05:43:14;96242.41;;;9.03;79.56
79331;BME280;68797;49.782;19.054;2023-04-25T05:46:01;96239.00;;;9.21;80.04
79331;BME280;68797;49.782;19.054;2023-04-25T05:48:54;96248.38;;;9.28;79.02
79331;BME280;68797;49.782;19.054;2023-04-25T05:51:55;96249.53;;;9.23;78.84
79331;BME280;68797;49.782;19.054;2023-04-25T05:54:41;96254.59;;;9.07;77.24
79331;BME280;68797;49.782;19.054;2023-04-25T05:57:07;96247.38;;;8.90;79.09
79331;BME280;68797;49.782;19.054;2023-04-25T05:59:34;96260.09;;;9.02;79.62
79331;BME280;68797;49.782;19.054;2023-04-25T06:02:03;96253.28;;;9.17;80.01
79331;BME280;68797;49.782;19.054;2023-04-25T06:04:36;96254.69;;;9.26;78.47
79331;BME280;68797;49.782;19.054;2023-04-25T06:07:03;96251.56;;;9.37;77.95
79331;BME280;68797;49.782;19.054;2023-04-25T06:09:30;96259.25;;;9.43;78.68
79331;BME280;68797;49.782;19.054;2023-04-25T06:12:00;96258.41;;;9.42;77.85
79331;BME280;68797;49.782;19.054;2023-04-25T06:14:30;96253.75;;;9.47;77.55
79331;BME280;68797;49.782;19.054;2023-04-25T06:16:56;96265.25;;;9.67;76.47
79331;BME280;68797;49.782;19.054;2023-04-25T06:19:29;96257.69;;;9.78;77.42
79331;BME280;68797;49.782;19.054;2023-04-25T06:21:56;96262.63;;;9.85;76.53
79331;BME280;68797;49.782;19.054;2023-04-25T06:24:25;96264.78;;;9.77;74.72
79331;BME280;68797;49.782;19.054;2023-04-25T06:26:53;96266.06;;;9.69;76.92
79331;BME280;68797;49.782;19.054;2023-04-25T06:29:21;96263.00;;;9.57;75.31
79331;BME280;68797;49.782;19.054;2023-04-25T06:31:47;96266.06;;;9.48;74.48
79331;BME280;68797;49.782;19.054;2023-04-25T06:34:15;96264.88;;;9.55;77.16
79331;BME280;68797;49.782;19.054;2023-04-25T06:36:42;96267.38;;;9.58;77.11
79331;BME280;68797;49.782;19.054;2023-04-25T06:39:13;96263.00;;;9.57;75.94
79331;BME280;68797;49.782;19.054;2023-04-25T06:41:39;96269.97;;;9.60;76.60
79331;BME280;68797;49.782;19.054;2023-04-25T06:44:09;96263.47;;;9.67;75.66
79331;BME280;68797;49.782;19.054;2023-04-25T06:46:39;96260.59;;;9.72;75.75
79331;BME280;68797;49.782;19.054;2023-04-25T06:49:06;96265.44;;;9.82;75.78
79331;BME280;68797;49.782;19.054;2023-04-25T06:51:32;96266.13;;;9.86;76.02
79331;BME280;68797;49.782;19.054;2023-04-25T06:53:59;96270.75;;;9.62;74.78
79331;BME280;68797;49.782;19.054;2023-04-25T06:56:31;96267.31;;;9.60;76.39
79331;BME280;68797;49.782;19.054;2023-04-25T06:59:03;96269.03;;;9.61;76.58
79331;BME280;68797;49.782;19.054;2023-04-25T07:01:36;96257.97;;;9.72;77.07
79331;BME280;68797;49.782;19.054;2023-04-25T07:04:06;96262.78;;;9.82;76.20
79331;BME280;68797;49.782;19.054;2023-04-25T07:06:37;96261.00;;;9.83;75.94
79331;BME280;68797;49.782;19.054;2023-04-25T07:09:09;96250.91;;;9.91;76.06
79331;BME280;68797;49.782;19.054;2023-04-25T07:11:40;96260.81;;;9.87;75.52
79331;BME280;68797;49.782;19.054;2023-04-25T07:14:07;96270.00;;;9.79;75.54
79331;BME280;68797;49.782;19.054;2023-04-25T07:16:34;96259.41;;;9.79;76.58
79331;BME280;68797;49.782;19.054;2023-04-25T07:19:04;96261.78;;;9.85;76.36
79331;BME280;68797;49.782;19.054;2023-04-25T07:21:33;96264.50;;;9.83;75.40
79331;BME280;68797;49.782;19.054;2023-04-25T07:24:11;96265.28;;;9.85;75.23
79331;BME280;68797;49.782;19.054;2023-04-25T07:26:44;96258.41;;;9.81;75.56
79331;BME280;68797;49.782;19.054;2023-04-25T07:29:30;96251.84;;;9.90;77.03
79331;BME280;68797;49.782;19.054;2023-04-25T07:32:06;96266.09;;;9.87;74.97
79331;BME280;68797;49.782;19.054;2023-04-25T07:34:33;96268.75;;;9.87;75.64
79331;BME280;68797;49.782;19.054;2023-04-25T07:37:03;96263.75;;;10.00;76.34
79331;BME280;68797;49.782;19.054;2023-04-25T07:39:40;96262.88;;;10.18;73.64
79331;BME280;68797;49.782;19.054;2023-04-25T07:42:07;96261.94;;;10.19;73.82
79331;BME280;68797;49.782;19.054;2023-04-25T07:44:38;96256.88;;;10.15;72.77
79331;BME280;68797;49.782;19.054;2023-04-25T07:47:10;96261.41;;;10.13;71.80
79331;BME280;68797;49.782;19.054;2023-04-25T07:49:39;96256.03;;;10.14;74.75
79331;BME280;68797;49.782;19.054;2023-04-25T07:52:06;96263.03;;;10.15;75.26
79331;BME280;68797;49.782;19.054;2023-04-25T07:54:36;96253.94;;;10.02;74.96
79331;BME280;68797;49.782;19.054;2023-04-25T07:57:11;96257.22;;;9.88;74.44
79331;BME280;68797;49.782;19.054;2023-04-25T07:59:40;96255.78;;;10.19;74.83
79331;BME280;68797;49.782;19.054;2023-04-25T08:02:07;96251.13;;;10.44;75.02
79331;BME280;68797;49.782;19.054;2023-04-25T08:04:33;96258.56;;;10.36;73.84
79331;BME280;68797;49.782;19.054;2023-04-25T08:07:03;96252.41;;;10.36;71.65
79331;BME280;68797;49.782;19.054;2023-04-25T08:09:44;96244.03;;;10.62;72.66
79331;BME280;68797;49.782;19.054;2023-04-25T08:12:19;96246.38;;;10.87;69.19
79331;BME280;68797;49.782;19.054;2023-04-25T08:14:47;96246.38;;;10.87;68.58
79331;BME280;68797;49.782;19.054;2023-04-25T08:17:19;96246.47;;;11.03;70.96
79331;BME280;68797;49.782;19.054;2023-04-25T08:19:47;96249.81;;;11.06;68.17
79331;BME280;68797;49.782;19.054;2023-04-25T08:22:34;96245.28;;;10.91;66.91
79331;BME280;68797;49.782;19.054;2023-04-25T08:25:20;96245.31;;;11.09;68.03
79331;BME280;68797;49.782;19.054;2023-04-25T08:27:48;96249.63;;;11.46;71.30
79331;BME280;68797;49.782;19.054;2023-04-25T08:30:17;96244.91;;;11.51;67.34
79331;BME280;68797;49.782;19.054;2023-04-25T08:32:44;96243.06;;;11.53;66.03
79331;BME280;68797;49.782;19.054;2023-04-25T08:35:24;96248.28;;;11.54;67.68
79331;BME280;68797;49.782;19.054;2023-04-25T08:37:53;96237.41;;;11.59;66.12
79331;BME280;68797;49.782;19.054;2023-04-25T08:40:22;96245.75;;;11.51;61.35
79331;BME280;68797;49.782;19.054;2023-04-25T08:43:01;96238.00;;;11.31;60.38
79331;BME280;68797;49.782;19.054;2023-04-25T08:45:32;96236.72;;;11.21;64.24
79331;BME280;68797;49.782;19.054;2023-04-25T08:48:02;96245.22;;;10.93;63.79
79331;BME280;68797;49.782;19.054;2023-04-25T08:50:31;96255.41;;;10.83;67.32
79331;BME280;68797;49.782;19.054;2023-04-25T08:52:59;96262.31;;;10.32;61.75
79331;BME280;68797;49.782;19.054;2023-04-25T08:55:29;96257.66;;;9.98;64.56
79331;BME280;68797;49.782;19.054;2023-04-25T08:58:00;96268.97;;;10.02;69.08
79331;BME280;68797;49.782;19.054;2023-04-25T09:00:28;96271.81;;;9.97;68.72
79331;BME280;68797;49.782;19.054;2023-04-25T09:02:58;96272.81;;;9.95;69.45
79331;BME280;68797;49.782;19.054;2023-04-25T09:05:30;96271.56;;;10.03;69.67
79331;BME280;68797;49.782;19.054;2023-04-25T09:07:58;96271.06;;;10.14;70.94
79331;BME280;68797;49.782;19.054;2023-04-25T09:10:25;96263.38;;;10.08;69.82
79331;BME280;68797;49.782;19.054;2023-04-25T09:13:13;96269.44;;;10.30;69.86
79331;BME280;68797;49.782;19.054;2023-04-25T09:16:02;96269.94;;;10.57;66.67
79331;BME280;68797;49.782;19.054;2023-04-25T09:18:52;96265.16;;;10.83;67.88
79331;BME280;68797;49.782;19.054;2023-04-25T09:21:33;96266.78;;;11.04;66.93
79331;BME280;68797;49.782;19.054;2023-04-25T09:24:01;96246.41;;;11.22;64.74
79331;BME280;68797;49.782;19.054;2023-04-25T09:26:31;96253.03;;;11.30;64.06
79331;BME280;68797;49.782;19.054;2023-04-25T09:29:05;96245.00;;;11.49;65.98
79331;BME280;68797;49.782;19.054;2023-04-25T09:31:37;96260.13;;;11.82;65.06
79331;BME280;68797;49.782;19.054;2023-04-25T09:34:10;96257.41;;;11.83;60.80
79331;BME280;68797;49.782;19.054;2023-04-25T09:36:48;96256.81;;;11.94;63.40
79331;BME280;68797;49.782;19.054;2023-04-25T09:39:56;96256.81;;;12.27;62.35
79331;BME280;68797;49.782;19.054;2023-04-25T09:42:29;96259.66;;;12.40;61.95
79331;BME280;68797;49.782;19.054;2023-04-25T09:45:08;96247.78;;;12.30;62.48
79331;BME280;68797;49.782;19.054;2023-04-25T09:47:47;96248.50;;;12.49;61.62
79331;BME280;68797;49.782;19.054;2023-04-25T09:50:19;96238.81;;;12.32;61.30
79331;BME280;68797;49.782;19.054;2023-04-25T09:53:04;96241.97;;;12.23;56.59
79331;BME280;68797;49.782;19.054;2023-04-25T09:55:53;96235.19;;;11.84;57.35
79331;BME280;68797;49.782;19.054;2023-04-25T09:58:20;96252.94;;;11.67;62.32
79331;BME280;68797;49.782;19.054;2023-04-25T10:00:47;96245.00;;;11.49;61.18
79331;BME280;68797;49.782;19.054;2023-04-25T10:03:25;96242.34;;;11.49;63.30
79331;BME280;68797;49.782;19.054;2023-04-25T10:06:21;96245.94;;;11.48;60.24
79331;BME280;68797;49.782;19.054;2023-04-25T10:08:58;96253.53;;;11.21;58.54
79331;BME280;68797;49.782;19.054;2023-04-25T10:11:26;96252.56;;;11.40;60.84
79331;BME280;68797;49.782;19.054;2023-04-25T10:13:56;96242.91;;;11.21;60.20
79331;BME280;68797;49.782;19.054;2023-04-25T10:16:24;96241.72;;;11.10;59.56
79331;BME280;68797;49.782;19.054;2023-04-25T10:18:53;96243.25;;;10.96;58.06
79331;BME280;68797;49.782;19.054;2023-04-25T10:21:22;96240.31;;;11.02;58.60
79331;BME280;68797;49.782;19.054;2023-04-25T10:23:51;96238.50;;;11.03;61.26
79331;BME280;68797;49.782;19.054;2023-04-25T10:26:19;96241.41;;;10.98;59.07
79331;BME280;68797;49.782;19.054;2023-04-25T10:29:00;96231.34;;;11.22;58.58
79331;BME280;68797;49.782;19.054;2023-04-25T10:31:27;96232.69;;;11.31;59.48
79331;BME280;68797;49.782;19.054;2023-04-25T10:33:56;96235.31;;;11.14;58.06
79331;BME280;68797;49.782;19.054;2023-04-25T10:36:24;96239.06;;;11.44;61.12
79331;BME280;68797;49.782;19.054;2023-04-25T10:38:53;96229.03;;;11.67;61.26
79331;BME280;68797;49.782;19.054;2023-04-25T10:41:24;96223.84;;;11.98;57.22
79331;BME280;68797;49.782;19.054;2023-04-25T10:43:59;96238.19;;;12.11;57.24
79331;BME280;68797;49.782;19.054;2023-04-25T10:46:28;96227.72;;;12.08;56.94
79331;BME280;68797;49.782;19.054;2023-04-25T10:49:00;96229.53;;;12.24;57.55
79331;BME280;68797;49.782;19.054;2023-04-25T10:51:45;96225.41;;;12.18;58.39
79331;BME280;68797;49.782;19.054;2023-04-25T10:54:17;96232.91;;;11.94;55.52
79331;BME280;68797;49.782;19.054;2023-04-25T10:56:44;96229.38;;;11.93;55.70
79331;BME280;68797;49.782;19.054;2023-04-25T10:59:12;96226.81;;;11.92;55.41
79331;BME280;68797;49.782;19.054;2023-04-25T11:02:02;96236.13;;;12.16;57.68
79331;BME280;68797;49.782;19.054;2023-04-25T11:04:40;96228.59;;;12.25;57.81
79331;BME280;68797;49.782;19.054;2023-04-25T11:08:00;96227.56;;;12.27;56.31
79331;BME280;68797;49.782;19.054;2023-04-25T11:10:10;96225.59;;;12.31;57.62
79331;BME280;68797;49.782;19.054;2023-04-25T11:12:38;96219.34;;;12.32;56.20
79331;BME280;68797;49.782;19.054;2023-04-25T11:15:06;96215.91;;;12.45;56.02
79331;BME280;68797;49.782;19.054;2023-04-25T11:17:35;96222.44;;;12.56;54.74
79331;BME280;68797;49.782;19.054;2023-04-25T11:20:08;96222.50;;;12.38;54.07
79331;BME280;68797;49.782;19.054;2023-04-25T11:22:38;96231.09;;;12.43;54.63
79331;BME280;68797;49.782;19.054;2023-04-25T11:25:13;96230.66;;;12.51;55.76
79331;BME280;68797;49.782;19.054;2023-04-25T11:27:56;96231.25;;;12.40;55.30
79331;BME280;68797;49.782;19.054;2023-04-25T11:30:26;96231.59;;;12.34;57.01
79331;BME280;68797;49.782;19.054;2023-04-25T11:32:53;96229.63;;;12.22;54.17
79331;BME280;68797;49.782;19.054;2023-04-25T11:35:21;96229.53;;;12.24;55.27
79331;BME280;68797;49.782;19.054;2023-04-25T11:37:52;96240.00;;;12.27;54.39
79331;BME280;68797;49.782;19.054;2023-04-25T11:40:18;96242.56;;;12.28;52.94
79331;BME280;68797;49.782;19.054;2023-04-25T11:42:46;96235.63;;;12.26;53.63
79331;BME280;68797;49.782;19.054;2023-04-25T11:45:14;96237.16;;;12.30;51.19
79331;BME280;68797;49.782;19.054;2023-04-25T11:47:41;96230.13;;;12.29;54.09
79331;BME280;68797;49.782;19.054;2023-04-25T11:50:10;96233.09;;;12.07;54.78
79331;BME280;68797;49.782;19.054;2023-04-25T11:52:44;96235.81;;;11.89;55.68
79331;BME280;68797;49.782;19.054;2023-04-25T11:55:18;96230.25;;;11.94;55.64
79331;BME280;68797;49.782;19.054;2023-04-25T11:57:49;96226.78;;;12.09;56.85
79331;BME280;68797;49.782;19.054;2023-04-25T12:00:25;96235.09;;;12.19;55.85
79331;BME280;68797;49.782;19.054;2023-04-25T12:02:56;96228.31;;;11.98;51.57
79331;BME280;68797;49.782;19.054;2023-04-25T12:05:28;96234.97;;;12.05;55.65
79331;BME280;68797;49.782;19.054;2023-04-25T12:07:57;96234.13;;;12.04;53.89
79331;BME280;68797;49.782;19.054;2023-04-25T12:10:25;96233.72;;;12.12;55.62
79331;BME280;68797;49.782;19.054;2023-04-25T12:12:52;96233.34;;;12.02;54.75
79331;BME280;68797;49.782;19.054;2023-04-25T12:15:24;96242.72;;;12.09;56.58
79331;BME280;68797;49.782;19.054;2023-04-25T12:17:54;96239.72;;;12.00;54.06
79331;BME280;68797;49.782;19.054;2023-04-25T12:20:25;96237.28;;;11.95;54.89
79331;BME280;68797;49.782;19.054;2023-04-25T12:22:56;96231.94;;;11.79;55.50
79331;BME280;68797;49.782;19.054;2023-04-25T12:25:44;96228.81;;;11.54;54.98
79331;BME280;68797;49.782;19.054;2023-04-25T12:28:24;96235.22;;;11.50;55.49
79331;BME280;68797;49.782;19.054;2023-04-25T12:31:01;96230.94;;;11.47;55.83
79331;BME280;68797;49.782;19.054;2023-04-25T12:33:34;96235.69;;;11.58;58.33
79331;BME280;68797;49.782;19.054;2023-04-25T12:36:04;96233.25;;;11.71;57.25
79331;BME280;68797;49.782;19.054;2023-04-25T12:38:39;96230.72;;;11.85;59.23
79331;BME280;68797;49.782;19.054;2023-04-25T12:41:09;96232.63;;;11.66;56.79
79331;BME280;68797;49.782;19.054;2023-04-25T12:43:35;96235.84;;;11.55;56.36
79331;BME280;68797;49.782;19.054;2023-04-25T12:46:04;96235.84;;;11.38;56.30
79331;BME280;68797;49.782;19.054;2023-04-25T12:48:31;96238.72;;;11.50;57.75
79331;BME280;68797;49.782;19.054;2023-04-25T12:51:00;96232.03;;;11.43;57.32
79331;BME280;68797;49.782;19.054;2023-04-25T12:53:28;96237.03;;;11.49;55.40
79331;BME280;68797;49.782;19.054;2023-04-25T12:55:54;96230.13;;;11.62;57.26
79331;BME280;68797;49.782;19.054;2023-04-25T12:58:22;96245.06;;;11.65;53.95
79331;BME280;68797;49.782;19.054;2023-04-25T13:46:52;96239.34;;;11.90;49.95
79331;BME280;68797;49.782;19.054;2023-04-25T14:00:14;96246.38;;;12.07;51.23
79331;BME280;68797;49.782;19.054;2023-04-25T14:03:39;96231.84;;;12.14;46.39
79331;BME280;68797;49.782;19.054;2023-04-25T14:07:04;96248.19;;;12.06;50.32
79331;BME280;68797;49.782;19.054;2023-04-25T14:10:35;96240.94;;;12.41;49.75
79331;BME280;68797;49.782;19.054;2023-04-25T14:14:21;96238.03;;;12.46;49.00
79331;BME280;68797;49.782;19.054;2023-04-25T14:17:32;96246.16;;;12.74;49.99
79331;BME280;68797;49.782;19.054;2023-04-25T14:24:43;96233.41;;;12.65;46.09
79331;BME280;68797;49.782;19.054;2023-04-25T14:32:31;96239.66;;;12.48;48.06
79331;BME280;68797;49.782;19.054;2023-04-25T14:36:18;96240.88;;;12.43;49.42